createdAt,value
2022-09-01T00:09:17.988Z,5.30
2022-09-01T00:19:26.064Z,5.40
2022-09-01T00:29:33.519Z,5.90
2022-09-01T00:39:40.599Z,5.70
2022-09-01T00:49:50.882Z,6.00
2022-09-01T01:00:02.015Z,5.90
2022-09-01T01:10:08.907Z,4.50
2022-09-01T01:20:36.668Z,4.60
2022-09-01T01:30:49.357Z,5.20
2022-09-01T01:40:56.480Z,5.70
2022-09-01T01:51:05.893Z,4.70
2022-09-01T02:01:13.275Z,4.00
2022-09-01T02:11:22.254Z,4.10
2022-09-01T02:21:30.139Z,4.70
2022-09-01T02:31:37.602Z,5.10
2022-09-01T02:41:44.736Z,4.40
2022-09-01T02:51:54.599Z,4.00
2022-09-01T03:02:01.810Z,3.90
2022-09-01T03:12:08.107Z,4.50
2022-09-01T03:22:15.287Z,4.70
2022-09-01T03:32:22.982Z,3.80
2022-09-01T03:42:31.152Z,3.70
2022-09-01T03:52:41.284Z,4.00
2022-09-01T04:02:48.063Z,4.60
2022-09-01T04:13:05.611Z,5.60
2022-09-01T04:23:13.302Z,5.50
2022-09-01T04:33:22.524Z,4.90
2022-09-01T04:43:29.565Z,6.60
2022-09-01T04:53:36.650Z,4.90
2022-09-01T05:13:53.149Z,44.30
2022-09-01T05:24:04.078Z,37.00
2022-09-01T05:34:13.853Z,30.80
2022-09-01T05:44:21.104Z,14.00
2022-09-01T05:54:29.410Z,6.30
2022-09-01T06:04:35.945Z,3.80
2022-09-01T06:14:43.142Z,2.80
2022-09-01T06:24:56.654Z,2.70
2022-09-01T06:35:07.401Z,2.80
2022-09-01T06:45:15.063Z,2.50
2022-09-01T06:55:22.039Z,1.40
2022-09-01T07:26:26.606Z,1.20
2022-09-01T07:42:59.280Z,0.90
2022-09-01T07:47:20.201Z,0.50
2022-09-01T07:57:32.239Z,0.90
2022-09-01T08:07:52.545Z,0.70
2022-09-01T08:18:00.172Z,1.10
2022-09-01T08:28:07.902Z,0.60
2022-09-01T08:38:14.919Z,1.00
2022-09-01T08:49:23.156Z,0.60
2022-09-01T08:58:54.439Z,0.40
2022-09-01T09:09:05.127Z,0.50
2022-09-01T09:19:12.557Z,0.50
2022-09-01T09:29:20.862Z,0.50
2022-09-01T09:49:41.420Z,0.30
2022-09-01T10:00:00.921Z,0.40
2022-09-01T10:10:06.213Z,0.20
2022-09-01T10:20:18.385Z,0.20
2022-09-01T10:30:28.947Z,0.30
2022-09-01T10:40:43.401Z,0.30
2022-09-01T10:50:58.379Z,0.30
2022-09-01T11:01:15.578Z,0.50
2022-09-01T11:11:27.471Z,0.30
2022-09-01T11:31:41.255Z,0.50
2022-09-01T11:41:57.541Z,0.40
2022-09-01T11:52:05.648Z,0.20
2022-09-01T12:02:19.066Z,0.30
2022-09-01T12:12:33.750Z,0.40
2022-09-01T12:22:44.066Z,0.50
2022-09-01T12:32:51.973Z,0.40
2022-09-01T12:42:59.460Z,0.20
2022-09-01T12:53:16.099Z,0.60
2022-09-01T13:03:23.762Z,0.30
2022-09-01T13:13:31.578Z,0.30
2022-09-01T13:23:38.629Z,0.60
2022-09-01T13:44:13.165Z,0.40
2022-09-01T13:54:20.777Z,1.00
2022-09-01T14:04:26.879Z,0.70
2022-09-01T14:25:03.907Z,2.00
2022-09-01T14:35:12.129Z,0.80
2022-09-01T14:55:23.954Z,0.50
2022-09-01T15:05:39.715Z,0.80
2022-09-01T15:15:47.323Z,0.50
2022-09-01T15:25:54.478Z,0.70
2022-09-01T15:36:00.497Z,0.40
2022-09-01T15:46:06.946Z,0.80
2022-09-01T15:56:14.014Z,1.00
2022-09-01T16:06:20.278Z,0.70
2022-09-01T16:16:40.144Z,0.70
2022-09-01T16:26:48.294Z,0.80
2022-09-01T16:36:55.838Z,2.00
2022-09-01T16:47:02.027Z,1.20
2022-09-01T16:57:12.329Z,1.40
2022-09-01T17:07:29.598Z,1.50
2022-09-01T17:17:34.752Z,2.50
2022-09-01T17:27:49.483Z,1.50
2022-09-01T17:38:12.257Z,1.30
2022-09-01T17:48:20.805Z,1.20
2022-09-01T17:58:30.117Z,1.90
2022-09-01T18:08:38.958Z,1.40
2022-09-01T18:18:48.759Z,1.50
2022-09-01T18:28:54.055Z,1.70
2022-09-01T18:39:08.229Z,1.70
2022-09-01T18:49:15.604Z,1.60
2022-09-01T18:59:36.974Z,2.10
2022-09-01T19:09:42.660Z,1.60
2022-09-01T19:19:53.033Z,2.20
2022-09-01T19:30:04.309Z,1.70
2022-09-01T19:40:11.722Z,1.70
2022-09-01T19:50:21.402Z,1.70
2022-09-01T20:00:36.394Z,1.40
2022-09-01T20:10:56.519Z,2.60
2022-09-01T20:21:09.489Z,2.30
2022-09-01T20:31:30.211Z,2.60
2022-09-01T20:41:39.673Z,2.50
2022-09-01T20:51:49.187Z,2.90
2022-09-01T21:01:58.888Z,3.00
2022-09-01T21:12:05.393Z,3.50
2022-09-01T21:22:18.461Z,2.40
2022-09-01T21:32:30.822Z,2.40
2022-09-01T21:42:42.501Z,3.00
2022-09-01T21:52:50.183Z,2.70
2022-09-01T22:02:57.325Z,2.30
2022-09-01T22:13:03.126Z,2.20
2022-09-01T22:23:10.949Z,2.30
2022-09-01T22:33:19.209Z,2.40
2022-09-01T22:43:27.549Z,3.50
2022-09-01T22:53:34.489Z,2.30
2022-09-01T23:03:42.721Z,2.80
2022-09-01T23:13:50.109Z,2.10
2022-09-01T23:23:59.067Z,2.60
2022-09-01T23:34:07.736Z,2.10
2022-09-01T23:44:16.163Z,2.30
2022-09-01T23:54:23.532Z,4.40
